Time;durP1;ratioP1;P1;durP2;ratioP2;P2;SDS_P1;SDS_P2;PMS_P1;PMS_P2;Temp;Humidity;BMP_temperature;BMP_pressure;BME280_temperature;BME280_humidity;BME280_pressure;Samples;Min_cycle;Max_cycle;Signal;HPM_P1;HPM_P2
2022/09/14 00:00:25;;;;;;;2.25;2.05;;;;;;;28.99;40.25;100825.53;4181267;28;20427;-64
2022/09/14 00:02:26;;;;;;;5.65;2.30;;;;;;;28.98;40.13;100837.97;4180870;28;20098;-65
2022/09/14 00:04:27;;;;;;;3.28;2.28;;;;;;;28.97;40.26;100839.13;4181061;28;20095;-64
2022/09/14 00:06:29;;;;;;;2.60;1.92;;;;;;;28.87;40.11;100827.03;4180714;28;20036;-64
2022/09/14 00:08:34;;;;;;;2.45;2.25;;;;;;;28.92;40.34;100839.28;4180527;28;20481;-65
2022/09/14 00:10:43;;;;;;;3.13;2.30;;;;;;;28.96;40.10;100848.75;4180772;28;20033;-64
2022/09/14 00:12:44;;;;;;;2.92;2.35;;;;;;;28.97;40.15;100861.66;4189757;28;20481;-65
2022/09/14 00:14:46;;;;;;;2.95;1.92;;;;;;;28.97;40.32;100861.66;4197645;28;20422;-65
2022/09/14 00:16:47;;;;;;;4.20;2.40;;;;;;;28.97;40.33;100858.84;4197260;28;20033;-64
2022/09/14 00:18:54;;;;;;;3.30;2.10;;;;;;;28.97;40.72;100856.03;4197559;28;20079;-65
2022/09/14 00:21:06;;;;;;;2.45;2.17;;;;;;;28.95;40.35;100861.97;4197317;28;20036;-65
2022/09/14 00:23:08;;;;;;;2.45;2.00;;;;;;;28.81;40.67;100839.66;4197231;28;20044;-65
2022/09/14 00:25:09;;;;;;;3.42;2.22;;;;;;;28.97;40.61;100867.31;4197330;28;20102;-65
2022/09/14 00:27:10;;;;;;;3.63;1.98;;;;;;;28.95;40.54;100870.44;4197548;28;20033;-65
2022/09/14 00:29:12;;;;;;;2.67;2.40;;;;;;;28.96;40.38;100874.94;4195271;28;20056;-65
2022/09/14 00:31:14;;;;;;;2.40;2.15;;;;;;;28.94;40.93;100865.13;4195700;28;20078;-65
2022/09/14 00:33:16;;;;;;;2.80;2.20;;;;;;;28.91;40.71;100874.22;4197929;28;20025;-64
2022/09/14 00:35:18;;;;;;;4.00;2.30;;;;;;;28.95;40.46;100883.66;4197450;28;20040;-64
2022/09/14 00:37:22;;;;;;;3.25;2.20;;;;;;;28.94;40.56;100884.84;4197596;28;20098;-64
2022/09/14 00:39:27;;;;;;;5.23;2.37;;;;;;;28.93;40.39;100881.19;4200456;28;20020;-64
2022/09/14 00:41:33;;;;;;;1.83;1.70;;;;;;;28.90;40.50;100881.03;4199933;28;20040;-64
2022/09/14 00:44:00;;;;;;;3.40;1.90;;;;;;;28.88;40.30;100884.19;4200826;28;20419;-65
2022/09/14 00:46:01;;;;;;;2.65;1.95;;;;;;;28.72;40.10;100878.28;4195984;28;20029;-64
2022/09/14 00:48:06;;;;;;;3.50;2.10;;;;;;;28.90;40.34;100904.41;4184694;28;20550;-64
2022/09/14 00:50:09;;;;;;;3.67;2.20;;;;;;;28.85;40.24;100888.50;4184128;28;20029;-64
2022/09/14 00:52:15;;;;;;;3.00;2.15;;;;;;;28.89;40.14;100902.75;4184028;28;20481;-65
2022/09/14 00:54:17;;;;;;;2.60;1.95;;;;;;;28.90;40.21;100903.56;4184265;28;20439;-64
2022/09/14 00:56:19;;;;;;;2.03;1.83;;;;;;;28.90;40.14;100909.19;4184256;28;20037;-65
2022/09/14 00:58:20;;;;;;;5.40;2.15;;;;;;;28.89;40.10;100914.00;4184398;28;20103;-64
2022/09/14 01:00:25;;;;;;;3.28;1.92;;;;;;;28.88;40.51;100916.00;4184283;28;20419;-65
2022/09/14 01:02:30;;;;;;;3.08;2.78;;;;;;;28.90;40.58;100909.19;4183834;28;20074;-64
2022/09/14 01:04:31;;;;;;;2.42;2.22;;;;;;;28.67;40.50;100889.72;4190065;28;20451;-64
2022/09/14 01:07:14;;;;;;;3.90;2.22;;;;;;;28.84;40.45;100923.47;4202842;28;20093;-65
2022/09/14 01:09:38;;;;;;;1.90;1.70;;;;;;;28.88;40.38;100927.28;4176732;28;20044;-64
2022/09/14 01:11:59;;;;;;;3.15;2.30;;;;;;;28.90;40.38;100926.09;4199838;28;20070;-64
2022/09/14 01:14:12;;;;;;;2.47;2.05;;;;;;;28.90;40.48;100937.38;4209757;28;20069;-64
2022/09/14 01:16:40;;;;;;;2.90;1.95;;;;;;;28.88;40.55;100934.91;4216614;28;20479;-64
2022/09/14 01:18:50;;;;;;;2.75;2.25;;;;;;;28.87;40.31;100939.72;4206784;28;20037;-63
2022/09/14 01:21:00;;;;;;;5.35;2.22;;;;;;;28.81;41.22;100934.56;4187373;28;20045;-64
2022/09/14 01:23:21;;;;;;;4.18;2.45;;;;;;;28.80;41.80;100945.00;4192275;28;20098;-64
2022/09/14 01:25:41;;;;;;;15.18;2.63;;;;;;;28.83;42.52;100937.91;4203812;28;20552;-63
2022/09/14 01:27:46;;;;;;;5.22;2.50;;;;;;;28.79;41.77;100926.47;4216166;28;20044;-64
2022/09/14 01:30:02;;;;;;;7.80;1.95;;;;;;;28.81;41.04;100946.66;4211884;28;20044;-64
2022/09/14 01:32:03;;;;;;;5.63;2.33;;;;;;;28.79;41.86;100948.19;4182091;28;20079;-63
2022/09/14 01:34:15;;;;;;;12.45;2.50;;;;;;;28.77;42.08;100951.34;4197508;28;20061;-63
2022/09/14 01:36:18;;;;;;;3.58;2.20;;;;;;;28.82;42.07;100951.16;4206973;28;20048;-63
2022/09/14 01:38:27;;;;;;;3.10;1.92;;;;;;;28.85;42.78;100949.66;4195082;28;20074;-63
2022/09/14 01:40:28;;;;;;;6.70;2.25;;;;;;;28.86;42.32;100951.28;4192115;28;20045;-63
2022/09/14 01:42:32;;;;;;;3.75;2.20;;;;;;;28.87;41.89;100956.59;4199924;28;20040;-64
2022/09/14 01:44:38;;;;;;;6.65;2.00;;;;;;;28.84;42.65;100954.44;4194601;28;20079;-64
2022/09/14 01:46:43;;;;;;;3.03;2.35;;;;;;;28.87;42.48;100953.78;4195832;28;20074;-63
2022/09/14 01:48:57;;;;;;;4.65;2.10;;;;;;;28.85;41.29;100960.91;4194669;28;20520;-63
2022/09/14 01:51:05;;;;;;;2.63;2.40;;;;;;;28.81;41.77;100962.75;4187859;28;20049;-63
2022/09/14 01:53:21;;;;;;;3.67;2.50;;;;;;;28.79;42.17;100977.16;4185617;28;20045;-65
2022/09/14 01:55:31;;;;;;;6.63;2.28;;;;;;;28.79;41.88;100957.44;4199181;28;20036;-63
2022/09/14 01:57:55;;;;;;;3.60;2.22;;;;;;;28.83;42.92;100954.78;4199303;28;20045;-64
2022/09/14 02:00:04;;;;;;;3.22;2.22;;;;;;;28.84;42.15;100948.81;4187503;28;20041;-65
2022/09/14 02:02:29;;;;;;;4.03;2.33;;;;;;;28.96;43.21;100969.88;4192945;28;20082;-64
2022/09/14 02:04:39;;;;;;;;;;;;;;;29.02;42.92;100962.91;4198591;28;20446;-65
2022/09/14 02:06:46;;;;;;;5.35;2.00;;;;;;;29.08;42.58;100970.00;4199214;28;20413;-65
2022/09/14 02:08:51;;;;;;;6.13;2.63;;;;;;;29.13;42.72;100978.25;4202826;28;20048;-65
2022/09/14 02:10:52;;;;;;;7.40;2.35;;;;;;;29.12;42.58;100974.63;4215476;28;20036;-65
2022/09/14 02:12:54;;;;;;;5.47;2.42;;;;;;;28.95;42.31;100951.28;4215989;28;20036;-65
2022/09/14 02:14:56;;;;;;;2.60;2.03;;;;;;;29.15;42.35;100987.22;4203477;28;20086;-65
2022/09/14 02:16:57;;;;;;;5.78;2.20;;;;;;;28.97;42.52;100949.00;4198920;28;20041;-65
2022/09/14 02:19:00;;;;;;;2.50;2.20;;;;;;;29.15;42.82;100978.78;4195522;28;20094;-65
2022/09/14 02:21:06;;;;;;;3.63;2.03;;;;;;;29.17;42.53;100976.44;4187179;28;20032;-64
2022/09/14 02:23:08;;;;;;;3.40;2.53;;;;;;;29.18;42.65;100978.06;4198833;28;20045;-64
2022/09/14 02:25:12;;;;;;;5.75;2.08;;;;;;;29.19;42.54;100978.94;4193608;28;20099;-65
2022/09/14 02:27:13;;;;;;;6.43;2.25;;;;;;;29.21;42.41;100982.22;4182167;28;20099;-65
2022/09/14 02:29:14;;;;;;;3.60;2.08;;;;;;;29.18;42.52;100980.91;4182541;28;20094;-65
2022/09/14 02:31:20;;;;;;;3.92;2.30;;;;;;;29.21;42.46;100988.69;4189404;28;20165;-65
2022/09/14 02:33:41;;;;;;;8.00;2.50;;;;;;;29.21;42.05;100993.50;4199122;28;20040;-64
2022/09/14 02:36:00;;;;;;;4.20;2.38;;;;;;;29.22;42.37;100990.34;4198884;28;20074;-65
2022/09/14 02:38:23;;;;;;;6.38;2.33;;;;;;;29.22;42.33;100981.88;4187197;28;20108;-64
2022/09/14 02:40:37;;;;;;;3.22;1.92;;;;;;;29.13;40.96;100981.06;4194626;28;20079;-65
2022/09/14 02:43:11;;;;;;;3.25;1.80;;;;;;;28.95;40.58;100990.72;4192213;28;20522;-65
2022/09/14 02:45:31;;;;;;;4.63;2.08;;;;;;;28.81;40.86;100991.72;4202730;28;20090;-65
2022/09/14 02:48:08;;;;;;;7.78;2.40;;;;;;;28.72;40.63;100999.34;4210319;28;20040;-64
2022/09/14 02:50:47;;;;;;;6.20;2.00;;;;;;;28.69;40.73;100997.22;4171449;28;20095;-64
2022/09/14 02:53:13;;;;;;;9.77;2.58;;;;;;;28.60;40.65;101000.03;4181564;28;20053;-64
2022/09/14 02:55:18;;;;;;;;;;;;;;;28.61;40.90;101000.88;4186515;28;20044;-63
2022/09/14 02:57:19;;;;;;;9.13;2.05;;;;;;;28.46;41.30;100967.59;4198964;28;20394;-63
2022/09/14 02:59:20;;;;;;;15.82;2.67;;;;;;;28.64;41.13;101003.03;4207411;28;20040;-64
2022/09/14 03:01:23;;;;;;;15.10;2.58;;;;;;;28.62;41.48;101010.97;4214297;28;20044;-62
2022/09/14 03:03:26;;;;;;;10.90;2.72;;;;;;;28.68;42.97;101009.63;4213907;28;20101;-64
2022/09/14 03:05:28;;;;;;;16.48;2.58;;;;;;;28.78;41.97;101020.56;4206149;28;20044;-64
2022/09/14 03:07:29;;;;;;;23.48;4.15;;;;;;;28.78;42.09;101031.84;4197662;28;20417;-64
2022/09/14 03:09:31;;;;;;;6.82;2.25;;;;;;;28.62;40.44;101006.16;4188167;28;20456;-64
2022/09/14 03:11:34;;;;;;;10.43;2.35;;;;;;;28.73;40.38;101037.66;4181529;28;20037;-65
2022/09/14 03:13:36;;;;;;;8.73;2.08;;;;;;;28.68;40.26;101036.97;4209426;28;20040;-64
2022/09/14 03:15:41;;;;;;;5.45;2.00;;;;;;;28.65;39.92;101038.47;4208345;28;20048;-62
2022/09/14 03:17:47;;;;;;;3.75;1.88;;;;;;;28.63;40.33;101041.59;4181802;28;20071;-63
2022/09/14 03:19:48;;;;;;;7.50;2.00;;;;;;;28.65;40.20;101044.09;4181511;28;20037;-63
2022/09/14 03:21:50;;;;;;;3.85;2.13;;;;;;;28.66;40.40;101034.50;4184710;28;20526;-63
2022/09/14 03:23:54;;;;;;;5.47;1.88;;;;;;;28.68;40.74;101037.78;4198060;28;20040;-63
2022/09/14 03:25:55;;;;;;;9.80;2.10;;;;;;;28.69;40.73;101041.47;4198132;28;20040;-63
2022/09/14 03:27:58;;;;;;;4.80;1.95;;;;;;;28.71;40.84;101037.13;4198137;28;20040;-63
2022/09/14 03:29:59;;;;;;;6.40;2.00;;;;;;;28.70;40.48;101046.75;4198099;28;20036;-63
2022/09/14 03:32:03;;;;;;;4.95;1.77;;;;;;;28.68;40.38;101049.06;4200028;28;20078;-63
2022/09/14 03:34:05;;;;;;;2.75;1.77;;;;;;;28.68;40.71;101049.06;4214763;28;20108;-63
2022/09/14 03:36:16;;;;;;;6.55;2.08;;;;;;;28.67;40.36;101046.56;4214630;28;20036;-63
2022/09/14 03:38:18;;;;;;;4.65;2.22;;;;;;;28.67;40.22;101044.59;4201971;28;20530;-63
2022/09/14 03:40:19;;;;;;;4.95;2.03;;;;;;;28.66;40.48;101050.56;4189464;28;20134;-63
2022/09/14 03:42:20;;;;;;;4.05;2.00;;;;;;;28.63;40.51;101052.84;4180352;28;20472;-63
2022/09/14 03:44:22;;;;;;;7.28;1.90;;;;;;;28.60;40.39;101044.28;4180401;28;20037;-63
2022/09/14 03:46:24;;;;;;;3.45;1.85;;;;;;;28.66;40.36;101059.00;4181020;28;20106;-63
2022/09/14 03:48:25;;;;;;;3.92;1.88;;;;;;;28.64;40.69;101059.34;4181166;28;20037;-63
2022/09/14 03:50:26;;;;;;;4.43;2.10;;;;;;;28.61;40.51;101054.38;4181203;28;20098;-63
2022/09/14 03:52:28;;;;;;;2.38;1.88;;;;;;;28.63;40.64;101066.09;4180814;28;20040;-63
2022/09/14 03:54:29;;;;;;;2.30;1.58;;;;;;;28.62;40.56;101067.28;4181380;28;20473;-63
2022/09/14 03:56:30;;;;;;;7.65;1.95;;;;;;;28.56;40.55;101068.59;4182188;28;20102;-63
2022/09/14 03:58:32;;;;;;;4.80;2.10;;;;;;;28.49;40.56;101068.25;4180794;28;20040;-63
2022/09/14 04:00:36;;;;;;;2.17;1.98;;;;;;;28.54;40.54;101062.47;4181095;28;20130;-63
2022/09/14 04:02:38;;;;;;;3.40;1.80;;;;;;;28.56;41.63;101068.59;4175197;28;20419;-63
2022/09/14 04:04:42;;;;;;;4.90;2.80;;;;;;;28.59;41.43;101073.56;4180943;28;20079;-63
2022/09/14 04:06:43;;;;;;;8.23;2.35;;;;;;;28.63;41.41;101069.75;4181529;28;20037;-63
2022/09/14 04:08:46;;;;;;;6.65;2.10;;;;;;;28.66;41.60;101068.28;4180519;28;20048;-62
2022/09/14 04:10:47;;;;;;;4.85;1.83;;;;;;;28.68;40.78;101080.03;4180544;28;20036;-63
2022/09/14 04:12:48;;;;;;;5.53;2.10;;;;;;;28.67;41.08;101081.19;4198447;28;20036;-63
2022/09/14 04:14:49;;;;;;;3.90;2.38;;;;;;;28.51;41.17;101054.69;4210271;28;20438;-63
2022/09/14 04:16:51;;;;;;;2.88;1.90;;;;;;;28.66;40.95;101085.16;4214253;28;20192;-65
2022/09/14 04:18:54;;;;;;;6.75;2.22;;;;;;;28.62;40.27;101101.88;4200830;28;20361;-62
2022/09/14 04:20:58;;;;;;;4.43;1.75;;;;;;;28.61;40.43;101088.16;4196807;28;20161;-63
2022/09/14 04:22:59;;;;;;;4.07;1.70;;;;;;;28.57;39.69;101092.78;4196949;28;20041;-63
2022/09/14 04:25:00;;;;;;;2.70;1.80;;;;;;;28.56;40.33;101091.97;4197077;28;20098;-62
2022/09/14 04:27:01;;;;;;;3.63;1.70;;;;;;;28.56;40.02;101088.31;4196938;28;20435;-61
2022/09/14 04:29:03;;;;;;;4.63;1.83;;;;;;;28.55;40.16;101095.13;4197419;28;20032;-62
2022/09/14 04:31:05;;;;;;;3.70;1.80;;;;;;;28.52;40.02;101084.50;4197131;28;20094;-65
2022/09/14 04:33:06;;;;;;;2.55;1.52;;;;;;;28.34;39.93;101064.78;4189178;28;20082;-62
2022/09/14 04:35:08;;;;;;;3.40;1.65;;;;;;;28.48;39.96;101100.38;4186769;28;20085;-63
2022/09/14 04:37:09;;;;;;;5.45;1.42;;;;;;;28.48;40.14;101095.59;4213743;28;20056;-62
2022/09/14 04:39:12;;;;;;;3.40;1.48;;;;;;;28.38;40.33;101083.81;4213613;28;20099;-63
2022/09/14 04:41:16;;;;;;;3.38;1.58;;;;;;;28.47;39.49;101104.38;4212307;28;20106;-62
2022/09/14 04:43:20;;;;;;;3.15;1.73;;;;;;;28.45;39.63;101106.66;4213577;28;20082;-63
2022/09/14 04:45:21;;;;;;;5.13;1.60;;;;;;;28.43;39.44;101100.56;4209166;28;20120;-63
2022/09/14 04:47:23;;;;;;;6.00;2.20;;;;;;;28.43;39.51;101111.81;4205599;28;20032;-62
2022/09/14 04:49:27;;;;;;;4.97;1.65;;;;;;;28.44;40.02;101110.66;4197174;28;20040;-63
2022/09/14 04:51:34;;;;;;;3.83;1.85;;;;;;;28.41;39.79;101100.88;4209615;28;20468;-65
2022/09/14 04:53:37;;;;;;;2.25;1.60;;;;;;;28.44;39.69;101102.19;4214052;28;20089;-63
2022/09/14 04:55:38;;;;;;;3.80;1.70;;;;;;;28.32;39.01;101092.41;4213755;28;20040;-62
2022/09/14 04:57:39;;;;;;;2.80;1.40;;;;;;;28.38;39.40;101117.59;4213743;28;20085;-63
2022/09/14 04:59:41;;;;;;;6.38;2.40;;;;;;;28.39;39.39;101108.81;4213857;28;20028;-62
2022/09/14 05:01:47;;;;;;;3.60;1.88;;;;;;;28.44;40.33;101116.28;4213683;28;20113;-62
2022/09/14 05:03:49;;;;;;;7.40;2.28;;;;;;;28.49;40.78;101114.13;4192016;28;20453;-62
2022/09/14 05:05:52;;;;;;;5.70;2.03;;;;;;;28.54;40.74;101104.69;4197730;28;20037;-65
2022/09/14 05:07:54;;;;;;;7.30;2.17;;;;;;;28.58;40.73;101105.69;4196976;28;20041;-62
2022/09/14 05:09:55;;;;;;;4.00;1.73;;;;;;;28.62;40.62;101101.88;4197317;28;20541;-62
2022/09/14 05:11:56;;;;;;;3.13;1.67;;;;;;;28.63;40.74;101097.09;4196856;28;20046;-62
2022/09/14 05:13:59;;;;;;;2.65;1.60;;;;;;;28.47;40.58;101070.59;4196935;28;20407;-62
2022/09/14 05:16:23;;;;;;;3.08;1.90;;;;;;;28.67;40.63;101112.16;4197573;28;20074;-62
2022/09/14 05:18:24;;;;;;;2.55;1.58;;;;;;;28.69;40.75;101104.22;4197455;28;20044;-62
2022/09/14 05:20:25;;;;;;;2.55;1.75;;;;;;;28.71;40.57;101104.72;4190167;28;20534;-62
2022/09/14 05:22:27;;;;;;;2.72;1.85;;;;;;;28.72;40.49;101116.81;4186260;28;20162;-62
2022/09/14 05:24:28;;;;;;;3.30;1.50;;;;;;;28.71;40.59;101115.16;4196333;28;20094;-62
2022/09/14 05:26:34;;;;;;;5.55;1.50;;;;;;;28.71;40.64;101110.34;4199515;28;20414;-62
2022/09/14 05:28:35;;;;;;;4.18;1.88;;;;;;;28.71;40.49;101115.97;4200084;28;20052;-64
2022/09/14 05:30:39;;;;;;;3.63;1.60;;;;;;;28.72;40.44;101114.00;4199942;28;20036;-64
2022/09/14 05:32:41;;;;;;;6.38;1.63;;;;;;;28.61;40.51;101093.78;4199737;28;20045;-64
2022/09/14 05:34:42;;;;;;;3.85;1.73;;;;;;;28.74;40.65;101115.31;4199518;28;20045;-62
2022/09/14 05:36:43;;;;;;;2.85;1.67;;;;;;;28.70;40.87;101097.44;4216129;28;20036;-62
2022/09/14 05:38:45;;;;;;;4.35;1.73;;;;;;;28.73;40.84;101107.22;4206070;28;20024;-63
2022/09/14 05:40:46;;;;;;;4.85;1.90;;;;;;;28.76;40.83;101101.72;4188322;28;20053;-63
2022/09/14 05:42:47;;;;;;;2.53;1.40;;;;;;;28.74;40.78;101103.25;4197382;28;20438;-62
2022/09/14 05:44:49;;;;;;;3.90;1.60;;;;;;;28.77;40.89;101108.19;4199680;28;20040;-62
2022/09/14 05:46:50;;;;;;;2.83;1.90;;;;;;;28.76;41.03;101109.34;4199770;28;20094;-63
2022/09/14 05:48:54;;;;;;;3.75;1.70;;;;;;;28.77;40.77;101105.38;4200041;28;20090;-62
2022/09/14 05:51:00;;;;;;;4.10;1.73;;;;;;;28.78;40.74;101113.50;4199062;28;20049;-62
2022/09/14 05:53:01;;;;;;;1.83;1.42;;;;;;;28.62;41.05;101086.97;4199662;28;20040;-63
2022/09/14 05:55:03;;;;;;;4.10;1.90;;;;;;;28.78;40.69;101119.16;4199467;28;20090;-63
2022/09/14 05:57:04;;;;;;;3.38;1.75;;;;;;;28.78;40.67;101116.31;4199882;28;20036;-62
2022/09/14 05:59:06;;;;;;;3.95;1.77;;;;;;;28.78;40.84;101121.97;4199195;28;20085;-62
2022/09/14 06:01:11;;;;;;;3.47;1.73;;;;;;;28.77;40.91;101120.31;4196158;28;20098;-63
2022/09/14 06:03:15;;;;;;;2.33;1.65;;;;;;;28.79;41.03;101134.88;4199451;28;20036;-62
2022/09/14 06:05:17;;;;;;;1.98;1.55;;;;;;;28.78;41.26;101136.03;4199866;28;20483;-62
2022/09/14 06:07:24;;;;;;;2.80;1.60;;;;;;;28.77;40.99;101134.41;4199099;28;20052;-62
2022/09/14 06:09:31;;;;;;;1.85;1.60;;;;;;;28.79;41.02;101134.88;4199018;28;20041;-63
2022/09/14 06:11:35;;;;;;;2.22;1.85;;;;;;;28.79;41.23;101140.50;4198875;28;20036;-62
2022/09/14 06:13:37;;;;;;;1.67;1.40;;;;;;;28.80;40.97;101130.91;4182668;28;20048;-62
2022/09/14 06:15:38;;;;;;;1.55;1.45;;;;;;;28.81;41.39;101131.72;4182813;28;20106;-62
2022/09/14 06:17:39;;;;;;;2.83;1.60;;;;;;;28.78;41.23;101132.41;4184995;28;20154;-62
2022/09/14 06:19:41;;;;;;;3.50;1.65;;;;;;;28.79;41.14;101140.50;4188367;28;20480;-62
2022/09/14 06:21:42;;;;;;;1.60;1.50;;;;;;;28.72;41.14;101122.44;4198873;28;20037;-62
2022/09/14 06:23:44;;;;;;;4.18;1.80;;;;;;;28.80;41.25;101153.44;4199155;28;20538;-62
2022/09/14 06:25:52;;;;;;;1.50;1.40;;;;;;;28.80;41.43;101142.16;4199266;28;20162;-62
2022/09/14 06:27:54;;;;;;;1.75;1.40;;;;;;;28.81;41.30;101138.19;4199069;28;20496;-62
2022/09/14 06:29:55;;;;;;;1.85;1.52;;;;;;;28.80;41.17;101130.91;4199063;28;20033;-62
2022/09/14 06:31:56;;;;;;;2.17;1.52;;;;;;;28.81;41.35;101143.81;4198382;28;20557;-62
2022/09/14 06:33:58;;;;;;;3.22;1.73;;;;;;;28.80;41.43;101142.16;4199292;28;20025;-62
2022/09/14 06:36:11;;;;;;;1.80;1.70;;;;;;;28.79;41.29;101145.31;4192469;28;20427;-62
2022/09/14 06:38:13;;;;;;;4.53;1.80;;;;;;;28.82;41.08;101151.13;4191817;28;20040;-64
2022/09/14 06:40:18;;;;;;;1.60;1.50;;;;;;;28.76;41.41;101138.34;4198518;28;20041;-62
2022/09/14 06:42:19;;;;;;;3.33;1.40;;;;;;;28.81;41.43;101146.63;4186794;28;20041;-63
2022/09/14 06:44:20;;;;;;;2.15;1.50;;;;;;;28.82;41.38;101150.31;4181932;28;20033;-62
2022/09/14 06:46:24;;;;;;;2.60;1.77;;;;;;;28.83;41.16;101152.78;4189189;28;20040;-62
2022/09/14 06:48:28;;;;;;;1.43;1.33;;;;;;;28.83;41.08;101147.13;4198737;28;20036;-63
2022/09/14 06:50:29;;;;;;;1.60;1.50;;;;;;;28.83;41.26;101147.13;4198435;28;20037;-63
2022/09/14 06:52:30;;;;;;;1.48;1.38;;;;;;;28.82;41.48;101150.31;4198382;28;20040;-62
2022/09/14 06:54:32;;;;;;;2.03;1.30;;;;;;;28.83;41.57;101158.41;4189766;28;20045;-62
2022/09/14 06:56:35;;;;;;;2.13;1.80;;;;;;;28.83;41.36;101143.50;4196811;28;20045;-62
2022/09/14 06:58:39;;;;;;;1.52;1.42;;;;;;;28.83;41.35;101146.31;4180485;28;20044;-63
2022/09/14 07:00:41;;;;;;;1.60;1.50;;;;;;;28.79;41.17;101129.25;4186812;28;20082;-62
2022/09/14 07:02:42;;;;;;;2.28;1.70;;;;;;;28.83;41.33;101157.59;4198257;28;20078;-62
2022/09/14 07:04:44;;;;;;;2.47;1.60;;;;;;;28.84;41.51;101147.97;4198092;28;20090;-62
2022/09/14 07:06:50;;;;;;;2.13;1.45;;;;;;;28.68;41.64;101127.06;4198327;28;20094;-62
2022/09/14 07:08:52;;;;;;;2.00;1.60;;;;;;;28.84;41.25;101148.78;4198625;28;20106;-62
2022/09/14 07:10:57;;;;;;;1.75;1.45;;;;;;;28.69;41.36;101129.56;4198073;28;20113;-62
2022/09/14 07:13:01;;;;;;;2.47;1.55;;;;;;;28.79;41.63;101150.94;4198731;28;20086;-63
2022/09/14 07:15:03;;;;;;;1.90;1.50;;;;;;;28.83;41.41;101152.78;4197930;28;20033;-62
2022/09/14 07:17:05;;;;;;;1.80;1.70;;;;;;;28.86;41.48;101166.22;4198488;28;20045;-62
2022/09/14 07:19:10;;;;;;;2.05;1.42;;;;;;;28.83;41.44;101164.03;4197929;28;20090;-62
2022/09/14 07:21:15;;;;;;;1.95;1.65;;;;;;;28.85;41.67;101172.97;4197591;28;20044;-63
2022/09/14 07:23:16;;;;;;;;;;;;;;;28.84;41.58;101171.31;4185593;28;20439;-63
2022/09/14 07:25:17;;;;;;;1.70;1.55;;;;;;;28.76;41.50;101152.41;4181646;28;19920;-63
2022/09/14 07:27:21;;;;;;;1.15;1.10;;;;;;;28.90;41.59;101176.78;4181678;28;20037;-62
2022/09/14 07:29:22;;;;;;;1.67;1.58;;;;;;;28.87;41.39;101173.50;4181269;28;20037;-62
2022/09/14 07:31:32;;;;;;;1.83;1.73;;;;;;;28.89;41.32;101173.16;4180842;28;20045;-62
2022/09/14 07:33:33;;;;;;;1.65;1.30;;;;;;;28.72;41.32;101151.41;4181167;28;20090;-62
2022/09/14 07:35:34;;;;;;;5.05;1.45;;;;;;;28.87;41.47;101173.50;4181124;28;20045;-62
2022/09/14 07:37:36;;;;;;;2.00;1.42;;;;;;;28.86;41.75;101173.81;4188825;28;20036;-62
2022/09/14 07:39:37;;;;;;;1.60;1.50;;;;;;;28.87;41.45;101170.69;4184786;28;20435;-62
2022/09/14 07:41:39;;;;;;;1.75;1.60;;;;;;;28.85;41.35;101174.97;4184667;28;20395;-63
2022/09/14 07:43:40;;;;;;;1.92;1.42;;;;;;;28.77;41.61;101158.88;4197891;28;20040;-62
2022/09/14 07:45:41;;;;;;;1.70;1.60;;;;;;;28.84;41.53;101170.50;4197916;28;20041;-62
2022/09/14 07:47:45;;;;;;;2.05;1.60;;;;;;;28.78;42.06;101155.75;4197371;28;20040;-63
2022/09/14 07:49:47;;;;;;;1.45;1.35;;;;;;;28.86;41.49;101173.81;4196894;28;20472;-63
2022/09/14 07:51:48;;;;;;;1.50;1.40;;;;;;;28.87;41.65;101169.84;4197487;28;20028;-62
2022/09/14 07:53:49;;;;;;;2.38;1.75;;;;;;;28.85;41.77;101177.78;4197567;28;20442;-62
2022/09/14 07:55:50;;;;;;;1.65;1.50;;;;;;;28.85;41.57;101172.16;4197442;28;20094;-62
2022/09/14 07:57:54;;;;;;;1.60;1.50;;;;;;;28.83;41.75;101180.94;4197718;28;20041;-63
2022/09/14 07:59:57;;;;;;;2.63;1.77;;;;;;;28.84;41.74;101181.75;4194513;28;20468;-62
2022/09/14 08:02:00;;;;;;;1.50;1.25;;;;;;;28.84;41.64;101179.78;4194177;28;20097;-62
2022/09/14 08:04:06;;;;;;;1.38;1.27;;;;;;;28.80;41.77;101170.31;4197536;28;20101;-62
2022/09/14 08:06:16;;;;;;;1.75;1.45;;;;;;;28.83;41.95;101192.22;4197354;28;20044;-62
2022/09/14 08:08:17;;;;;;;2.22;1.70;;;;;;;28.85;41.90;101189.06;4197628;28;20048;-63
2022/09/14 08:10:21;;;;;;;2.65;1.67;;;;;;;28.85;42.08;101191.88;4196499;28;20045;-63
2022/09/14 08:12:23;;;;;;;1.40;1.30;;;;;;;28.81;41.78;101177.59;4187707;28;20044;-62
2022/09/14 08:14:28;;;;;;;1.40;1.30;;;;;;;28.78;41.86;101178.28;4195741;28;20048;-62
2022/09/14 08:16:32;;;;;;;1.35;1.25;;;;;;;28.85;41.84;101189.88;4197475;28;20114;-62
2022/09/14 08:18:34;;;;;;;2.63;1.50;;;;;;;28.84;42.09;101191.03;4197618;28;20036;-62
2022/09/14 08:20:36;;;;;;;1.60;1.50;;;;;;;28.87;41.94;101198.03;4197438;28;20407;-63
2022/09/14 08:22:38;;;;;;;1.90;1.50;;;;;;;28.85;41.74;101200.31;4192316;28;20048;-63
2022/09/14 08:24:42;;;;;;;1.85;1.25;;;;;;;28.84;41.81;101198.66;4199836;28;20041;-62
2022/09/14 08:26:43;;;;;;;;;;;;;;;28.84;42.15;101198.66;4196683;28;20041;-62
2022/09/14 08:28:46;;;;;;;1.38;1.25;;;;;;;28.91;41.70;101198.16;4196795;28;19958;-63
2022/09/14 08:30:47;;;;;;;1.52;1.20;;;;;;;28.90;41.73;101202.97;4196296;28;20101;-62
2022/09/14 08:32:49;;;;;;;1.50;1.40;;;;;;;28.87;41.61;101201.66;4195198;28;20041;-62
2022/09/14 08:34:50;;;;;;;1.95;1.50;;;;;;;28.86;41.77;101202.81;4195321;28;20044;-62
2022/09/14 08:36:52;;;;;;;1.52;1.40;;;;;;;28.84;41.92;101205.13;4197107;28;20040;-62
2022/09/14 08:38:53;;;;;;;1.48;1.35;;;;;;;28.85;41.78;101200.31;4197244;28;20426;-62
2022/09/14 08:40:58;;;;;;;1.85;1.40;;;;;;;28.81;41.83;101204.94;4186665;28;20037;-62
2022/09/14 08:43:02;;;;;;;1.98;1.30;;;;;;;28.81;41.91;101202.97;4195795;28;20117;-62
2022/09/14 08:45:05;;;;;;;1.60;1.40;;;;;;;28.80;41.96;101195.66;4200674;28;20043;-62
2022/09/14 08:47:19;;;;;;;1.63;1.52;;;;;;;28.81;42.19;101205.78;4204613;28;20051;-62
2022/09/14 08:49:23;;;;;;;2.15;1.30;;;;;;;28.82;41.80;101207.47;4211126;28;20040;-62
2022/09/14 08:51:25;;;;;;;1.95;1.80;;;;;;;28.71;42.06;101197.66;4202190;28;20036;-62
2022/09/14 08:53:26;;;;;;;1.27;1.20;;;;;;;28.82;41.85;101212.25;4199889;28;20507;-62
2022/09/14 08:55:49;;;;;;;2.78;1.30;;;;;;;28.80;42.27;101215.38;4208039;28;20028;-62
2022/09/14 08:57:59;;;;;;;1.45;1.35;;;;;;;28.81;42.25;101210.59;4184007;28;20078;-62
2022/09/14 09:00:15;;;;;;;3.28;1.98;;;;;;;28.78;42.30;101212.09;4197763;28;20044;-62
2022/09/14 09:02:32;;;;;;;2.08;1.27;;;;;;;28.80;41.92;101209.75;4198846;28;20407;-62
2022/09/14 09:04:50;;;;;;;1.38;1.27;;;;;;;28.82;42.30;101213.09;4209282;28;20040;-64
2022/09/14 09:07:12;;;;;;;1.38;1.27;;;;;;;28.81;42.12;101205.78;4216074;28;20097;-64
2022/09/14 09:09:44;;;;;;;1.85;1.30;;;;;;;28.81;42.28;101210.59;4205598;28;20098;-62
2022/09/14 09:11:50;;;;;;;1.48;1.35;;;;;;;28.77;41.91;101207.63;4213022;28;20369;-62
2022/09/14 09:13:55;;;;;;;1.42;1.33;;;;;;;28.80;42.01;101221.03;4206498;28;20040;-62
2022/09/14 09:16:01;;;;;;;1.33;1.23;;;;;;;28.72;42.08;101202.09;4213821;28;20047;-62
2022/09/14 09:18:31;;;;;;;1.83;1.20;;;;;;;28.77;42.13;101226.47;4201568;28;20446;-62
2022/09/14 09:20:42;;;;;;;1.85;1.45;;;;;;;28.59;42.50;101205.88;4206061;28;20048;-62
2022/09/14 09:23:12;;;;;;;1.40;1.30;;;;;;;28.77;42.35;101244.22;4214904;28;20044;-62
2022/09/14 09:25:27;;;;;;;1.40;1.30;;;;;;;28.79;42.02;101241.91;4214255;28;20079;-62
2022/09/14 09:27:31;;;;;;;3.03;1.38;;;;;;;28.80;42.59;101254.81;4199113;28;20048;-62
2022/09/14 09:29:32;;;;;;;1.75;1.35;;;;;;;28.80;42.14;101254.81;4199908;28;20024;-62
2022/09/14 09:31:37;;;;;;;1.60;1.42;;;;;;;28.78;42.16;101251.50;4199463;28;20090;-63
2022/09/14 09:33:38;;;;;;;1.58;1.20;;;;;;;28.77;42.56;101258.31;4199854;28;20091;-62
2022/09/14 09:35:40;;;;;;;3.25;1.23;;;;;;;28.65;41.94;101241.19;4197702;28;20040;-62
2022/09/14 09:37:41;;;;;;;2.42;1.40;;;;;;;28.76;42.24;101259.44;4197971;28;20468;-62
2022/09/14 09:39:43;;;;;;;1.55;1.20;;;;;;;28.75;42.36;101266.25;4198156;28;20102;-63
2022/09/14 09:41:59;;;;;;;1.45;1.35;;;;;;;28.73;42.35;101270.56;4199414;28;20106;-62
2022/09/14 09:44:09;;;;;;;1.30;1.20;;;;;;;28.74;41.89;101267.41;4199934;28;20029;-62